Time;durP1;ratioP1;P1;durP2;ratioP2;P2;SDS_P1;SDS_P2;PMS_P1;PMS_P2;Temp;Humidity;BMP_temperature;BMP_pressure;BME280_temperature;BME280_humidity;BME280_pressure;Samples;Min_cycle;Max_cycle;Signal;HPM_P1;HPM_P2
2022/03/07 00:00:53;;;;;;;23.60;5.85;;;1.90;97.60;;;;;;4993644;28;20101;-53
2022/03/07 00:03:37;;;;;;;8.43;5.53;;;1.80;98.20;;;;;;4994553;28;20045;-54
2022/03/07 00:06:22;;;;;;;7.65;5.32;;;1.80;98.20;;;;;;5007824;28;20046;-51
2022/03/07 00:09:06;;;;;;;6.75;5.30;;;1.70;98.50;;;;;;4994726;28;20122;-53
2022/03/07 00:11:51;;;;;;;6.10;5.25;;;1.70;98.20;;;;;;4993782;28;20041;-50
2022/03/07 00:14:35;;;;;;;6.10;5.33;;;1.80;98.20;;;;;;4994182;28;20094;-53
2022/03/07 00:17:19;;;;;;;8.25;5.30;;;1.80;98.00;;;;;;4994309;28;20041;-53
2022/03/07 00:20:04;;;;;;;7.25;5.35;;;1.80;98.20;;;;;;4994272;28;20095;-53
2022/03/07 00:22:48;;;;;;;7.80;6.00;;;1.90;98.20;;;;;;4993684;28;20064;-54
2022/03/07 00:25:32;;;;;;;9.13;5.82;;;1.90;98.30;;;;;;4994646;28;20537;-53
2022/03/07 00:28:16;;;;;;;7.35;5.97;;;1.90;98.20;;;;;;4994350;28;20040;-48
2022/03/07 00:31:01;;;;;;;8.02;6.38;;;1.90;97.90;;;;;;5006985;28;20038;-55
2022/03/07 00:33:45;;;;;;;8.90;6.20;;;1.80;97.80;;;;;;4993678;28;20570;-52
2022/03/07 00:36:29;;;;;;;6.53;5.60;;;1.80;98.00;;;;;;4993680;28;20124;-57
2022/03/07 00:39:13;;;;;;;8.30;6.22;;;1.90;98.20;;;;;;4994200;28;20059;-56
2022/03/07 00:41:57;;;;;;;7.88;6.00;;;1.90;98.20;;;;;;4993866;28;20633;-51
2022/03/07 00:44:41;;;;;;;8.30;6.50;;;1.90;98.00;;;;;;4993533;28;20033;-48
2022/03/07 00:47:25;;;;;;;6.35;5.60;;;1.90;97.90;;;;;;4994107;28;20045;-48
2022/03/07 00:50:10;;;;;;;7.40;6.35;;;1.90;98.00;;;;;;4993541;28;20118;-57
2022/03/07 00:52:54;;;;;;;6.85;6.13;;;1.80;98.10;;;;;;4993597;28;20053;-55
2022/03/07 00:55:39;;;;;;;7.70;6.47;;;2.00;98.20;;;;;;4993781;28;20030;-50
2022/03/07 00:58:24;;;;;;;9.07;6.63;;;1.80;98.30;;;;;;4994146;28;20157;-53
2022/03/07 01:01:08;;;;;;;10.40;6.45;;;1.80;98.60;;;;;;4994223;28;20041;-55
2022/03/07 01:03:53;;;;;;;9.30;6.55;;;1.80;98.50;;;;;;5006440;28;20085;-48
2022/03/07 01:06:37;;;;;;;8.90;6.60;;;1.80;98.80;;;;;;4994301;28;20556;-53
2022/03/07 01:09:21;;;;;;;10.13;6.82;;;1.80;98.70;;;;;;4994831;28;20105;-49
2022/03/07 01:12:06;;;;;;;7.90;6.43;;;1.80;98.70;;;;;;4994923;28;20128;-52
2022/03/07 01:14:50;;;;;;;7.18;6.13;;;1.90;98.30;;;;;;4995259;28;20046;-55
2022/03/07 01:17:35;;;;;;;12.38;7.05;;;1.90;98.30;;;;;;5007064;28;20038;-49
2022/03/07 01:20:21;;;;;;;9.77;7.20;;;1.90;98.20;;;;;;4993960;28;20041;-50
2022/03/07 01:23:05;;;;;;;;;;;1.90;98.30;;;;;;4996682;28;20045;-50
2022/03/07 01:25:49;;;;;;;9.70;7.03;;;1.90;98.20;;;;;;4996874;28;19919;-54
2022/03/07 01:28:33;;;;;;;10.07;7.05;;;1.90;98.30;;;;;;4996737;28;20132;-50
2022/03/07 01:31:17;;;;;;;8.75;7.53;;;1.90;98.10;;;;;;4995678;28;20422;-56
2022/03/07 01:34:03;;;;;;;;;;;1.80;98.40;;;;;;4993666;28;20053;-54
2022/03/07 01:36:47;;;;;;;11.63;7.30;;;1.80;98.50;;;;;;4993986;28;19916;-54
2022/03/07 01:39:31;;;;;;;7.75;6.78;;;1.60;99.00;;;;;;4993292;28;20068;-56
2022/03/07 01:42:16;;;;;;;8.35;7.40;;;1.70;99.00;;;;;;4992497;28;20045;-52
2022/03/07 01:45:14;;;;;;;10.00;7.25;;;1.70;99.00;;;;;;4993097;28;20034;-50
2022/03/07 01:47:58;;;;;;;8.20;6.88;;;1.70;99.10;;;;;;4978089;28;20066;-48
2022/03/07 01:50:42;;;;;;;12.23;7.93;;;1.70;99.30;;;;;;4992860;28;20085;-52
2022/03/07 01:53:27;;;;;;;10.02;7.50;;;1.70;99.20;;;;;;4992662;28;20039;-53
2022/03/07 01:56:11;;;;;;;8.98;7.53;;;1.70;99.20;;;;;;4993139;28;20179;-54
2022/03/07 01:58:55;;;;;;;9.93;7.78;;;1.70;99.20;;;;;;4992578;28;20060;-49
2022/03/07 02:01:40;;;;;;;12.43;7.93;;;1.80;99.20;;;;;;4992836;28;20033;-50
2022/03/07 02:04:24;;;;;;;13.07;8.63;;;1.70;99.20;;;;;;5005395;28;20169;-50
2022/03/07 02:07:08;;;;;;;8.43;7.28;;;1.80;99.20;;;;;;4993063;28;20158;-49
2022/03/07 02:09:54;;;;;;;11.35;8.43;;;1.70;99.30;;;;;;4992236;28;20077;-50
2022/03/07 02:12:38;;;;;;;10.75;8.05;;;1.60;99.60;;;;;;4992879;28;20065;-52
2022/03/07 02:15:23;;;;;;;11.43;7.68;;;1.60;99.60;;;;;;4992807;28;20041;-51
2022/03/07 02:18:07;;;;;;;10.32;8.15;;;1.60;99.60;;;;;;4992571;28;20081;-51
2022/03/07 02:20:56;;;;;;;10.80;8.10;;;1.60;99.60;;;;;;4973328;28;20545;-53
2022/03/07 02:23:41;;;;;;;10.30;7.78;;;1.60;99.90;;;;;;4978508;28;20100;-53
2022/03/07 02:26:25;;;;;;;9.50;7.85;;;1.60;99.60;;;;;;4996406;28;20086;-54
2022/03/07 02:29:10;;;;;;;10.77;7.45;;;1.60;99.50;;;;;;4995351;28;20080;-56
2022/03/07 02:31:54;;;;;;;8.90;7.93;;;1.60;99.80;;;;;;4994268;28;20556;-53
2022/03/07 02:34:39;;;;;;;9.48;7.97;;;1.70;99.70;;;;;;4995650;28;20033;-48
2022/03/07 02:37:23;;;;;;;10.00;7.80;;;1.60;99.50;;;;;;4995641;28;20037;-50
2022/03/07 02:40:07;;;;;;;14.98;9.60;;;1.60;99.60;;;;;;4996423;28;20065;-50
2022/03/07 02:42:51;;;;;;;11.55;8.02;;;1.70;99.50;;;;;;4991347;28;20038;-56
2022/03/07 02:45:36;;;;;;;11.35;8.38;;;1.70;99.40;;;;;;4987307;28;20065;-52
2022/03/07 02:48:20;;;;;;;9.32;7.72;;;1.60;99.30;;;;;;4994458;28;20069;-54
2022/03/07 02:51:04;;;;;;;8.80;6.90;;;1.60;99.10;;;;;;5008053;28;20569;-55
2022/03/07 02:53:49;;;;;;;8.45;7.50;;;1.60;99.20;;;;;;5007014;28;20543;-52
2022/03/07 02:56:33;;;;;;;10.30;7.47;;;1.70;99.20;;;;;;4996358;28;20168;-50
2022/03/07 02:59:17;;;;;;;9.45;7.32;;;1.60;99.00;;;;;;4996129;28;20453;-50
2022/03/07 03:02:01;;;;;;;8.93;7.68;;;1.60;99.00;;;;;;5008873;28;20044;-53
2022/03/07 03:04:45;;;;;;;9.95;8.07;;;1.70;99.20;;;;;;4995928;28;20046;-50
2022/03/07 03:07:29;;;;;;;9.90;7.40;;;1.70;99.00;;;;;;5008811;28;20089;-53
2022/03/07 03:10:14;;;;;;;12.20;7.60;;;1.70;99.10;;;;;;4995874;28;20041;-50
2022/03/07 03:12:58;;;;;;;8.70;7.05;;;1.70;99.20;;;;;;4995633;28;20038;-55
2022/03/07 03:15:44;;;;;;;8.70;7.35;;;1.80;99.00;;;;;;4976207;28;20046;-53
2022/03/07 03:18:28;;;;;;;9.57;7.55;;;1.80;99.10;;;;;;4993920;28;20896;-48
2022/03/07 03:21:12;;;;;;;10.07;7.63;;;1.70;99.20;;;;;;4994598;28;20037;-53
2022/03/07 03:23:56;;;;;;;8.07;7.00;;;1.70;99.30;;;;;;4995448;28;20135;-50
2022/03/07 03:26:41;;;;;;;9.55;7.50;;;1.70;99.40;;;;;;4995296;28;20096;-53
2022/03/07 03:29:25;;;;;;;9.23;7.43;;;1.70;99.40;;;;;;4987181;28;20097;-51
2022/03/07 03:32:09;;;;;;;10.10;7.70;;;1.80;99.50;;;;;;4995716;28;20124;-50
2022/03/07 03:34:55;;;;;;;9.32;8.15;;;1.60;99.40;;;;;;4995302;28;20037;-54
2022/03/07 03:37:40;;;;;;;8.27;6.88;;;1.70;99.60;;;;;;4995440;28;20069;-50
2022/03/07 03:40:24;;;;;;;9.75;8.23;;;1.70;99.70;;;;;;4994515;28;20037;-54
2022/03/07 03:43:08;;;;;;;9.23;7.82;;;1.80;99.60;;;;;;4994966;28;20104;-51
2022/03/07 03:45:52;;;;;;;8.98;8.07;;;1.80;99.80;;;;;;4995291;28;20072;-53
2022/03/07 03:48:36;;;;;;;12.37;7.67;;;1.80;99.60;;;;;;4995250;28;20100;-53
2022/03/07 03:51:20;;;;;;;12.25;8.73;;;1.90;99.30;;;;;;4995371;28;20041;-53
2022/03/07 03:54:05;;;;;;;9.68;7.97;;;1.90;99.20;;;;;;4993899;28;20116;-49
2022/03/07 03:56:52;;;;;;;10.00;7.60;;;1.80;99.50;;;;;;4995424;28;20037;-51
2022/03/07 03:59:36;;;;;;;10.15;8.00;;;1.80;99.80;;;;;;4993564;28;20069;-54
2022/03/07 04:02:20;;;;;;;10.00;8.50;;;1.70;99.70;;;;;;5007425;28;20064;-50
2022/03/07 04:05:05;;;;;;;10.23;8.10;;;1.70;99.80;;;;;;4994610;28;20072;-50
2022/03/07 04:07:49;;;;;;;10.35;8.18;;;1.80;99.90;;;;;;4994818;28;20037;-52
2022/03/07 04:10:34;;;;;;;11.70;7.80;;;1.80;99.90;;;;;;4994810;28;20493;-57
2022/03/07 04:13:18;;;;;;;9.60;8.10;;;1.60;99.90;;;;;;4993878;28;20045;-54
2022/03/07 04:16:03;;;;;;;10.65;8.60;;;1.60;99.90;;;;;;4993835;28;20064;-51
2022/03/07 04:18:47;;;;;;;10.45;8.00;;;1.70;99.90;;;;;;4994267;28;20574;-50
2022/03/07 04:21:31;;;;;;;12.70;8.18;;;1.70;99.90;;;;;;4994487;28;20061;-51
2022/03/07 04:24:16;;;;;;;9.88;8.10;;;1.70;99.90;;;;;;4994254;28;20045;-50
2022/03/07 04:27:00;;;;;;;12.02;8.57;;;1.70;99.90;;;;;;4994685;28;20100;-49
2022/03/07 04:29:44;;;;;;;12.27;8.43;;;1.70;99.90;;;;;;4994108;28;20568;-49
2022/03/07 04:32:28;;;;;;;11.02;8.18;;;1.60;99.90;;;;;;4993921;28;20041;-50
2022/03/07 04:35:13;;;;;;;9.95;7.65;;;1.70;99.90;;;;;;4974592;28;20561;-53
2022/03/07 04:37:57;;;;;;;10.73;8.07;;;1.50;99.90;;;;;;4975205;28;20049;-55
2022/03/07 04:40:42;;;;;;;12.75;8.52;;;1.50;99.90;;;;;;4993729;28;20052;-57
2022/03/07 04:43:26;;;;;;;11.88;8.13;;;1.50;99.90;;;;;;4993431;28;20116;-53
2022/03/07 04:46:11;;;;;;;11.85;7.70;;;1.50;99.90;;;;;;5005939;28;20569;-49
2022/03/07 04:48:55;;;;;;;10.30;8.25;;;1.40;99.90;;;;;;4974785;28;20057;-50
2022/03/07 04:51:45;;;;;;;10.70;7.97;;;1.50;99.90;;;;;;4976236;28;20085;-51
2022/03/07 04:54:29;;;;;;;10.90;8.23;;;1.50;99.90;;;;;;4994338;28;20145;-52
2022/03/07 04:57:14;;;;;;;11.75;8.07;;;1.40;99.90;;;;;;4994092;28;20544;-49
2022/03/07 04:59:58;;;;;;;10.18;8.07;;;1.40;99.90;;;;;;4993664;28;20068;-54
2022/03/07 05:02:42;;;;;;;12.10;8.32;;;1.40;99.90;;;;;;4993201;28;20066;-51
2022/03/07 05:05:26;;;;;;;10.25;7.45;;;1.50;99.90;;;;;;4993701;28;20044;-56
2022/03/07 05:08:10;;;;;;;15.32;8.88;;;1.50;99.90;;;;;;4993271;28;20065;-52
2022/03/07 05:10:54;;;;;;;9.97;7.80;;;1.50;99.90;;;;;;4992952;28;20121;-52
2022/03/07 05:13:38;;;;;;;10.23;8.38;;;1.40;99.90;;;;;;4993205;28;20034;-50
2022/03/07 05:16:23;;;;;;;18.70;12.00;;;1.30;99.90;;;;;;4990420;28;20034;-52
2022/03/07 05:19:06;;;;;;;11.23;8.27;;;1.30;99.90;;;;;;4993194;28;20077;-51
2022/03/07 05:21:51;;;;;;;13.85;8.00;;;1.20;99.90;;;;;;4993455;28;20050;-55
2022/03/07 05:24:35;;;;;;;9.32;7.82;;;1.10;99.90;;;;;;4993496;28;20053;-51
2022/03/07 05:27:19;;;;;;;14.75;8.38;;;1.10;99.90;;;;;;5006055;28;20116;-56
2022/03/07 05:30:04;;;;;;;8.98;7.80;;;1.00;99.90;;;;;;4993389;28;20069;-54
2022/03/07 05:32:51;;;;;;;10.27;8.35;;;1.20;99.90;;;;;;4974106;28;20115;-56
2022/03/07 05:35:35;;;;;;;10.80;8.40;;;1.10;99.90;;;;;;4982340;28;20122;-54
2022/03/07 05:38:19;;;;;;;9.95;8.48;;;1.10;99.90;;;;;;4993316;28;20154;-55
2022/03/07 05:41:03;;;;;;;9.40;8.43;;;1.10;99.90;;;;;;4995130;28;20037;-50
2022/03/07 05:43:47;;;;;;;10.90;7.97;;;1.10;99.90;;;;;;4992659;28;20088;-49
2022/03/07 05:46:31;;;;;;;13.18;8.90;;;1.10;99.90;;;;;;4991922;28;20049;-55
2022/03/07 05:49:15;;;;;;;10.07;8.15;;;1.00;99.90;;;;;;4993003;28;20069;-51
2022/03/07 05:51:59;;;;;;;13.50;8.13;;;1.10;99.90;;;;;;4991841;28;20036;-54
2022/03/07 05:54:43;;;;;;;12.13;8.20;;;1.10;99.90;;;;;;4990824;28;20041;-52
2022/03/07 05:57:27;;;;;;;11.32;8.60;;;1.10;99.90;;;;;;4992752;28;20029;-53
2022/03/07 06:00:12;;;;;;;13.75;8.88;;;1.00;99.90;;;;;;4995199;28;20041;-52
2022/03/07 06:02:56;;;;;;;12.45;8.40;;;1.10;99.90;;;;;;4996605;28;20041;-55
2022/03/07 06:05:40;;;;;;;10.30;8.68;;;1.10;99.90;;;;;;4996695;28;20057;-54
2022/03/07 06:08:24;;;;;;;9.52;8.52;;;1.10;99.90;;;;;;5009624;28;20057;-51
2022/03/07 06:11:08;;;;;;;11.15;8.32;;;1.20;99.90;;;;;;4995336;28;20038;-54
2022/03/07 06:13:52;;;;;;;15.38;8.00;;;1.20;99.90;;;;;;4996125;28;20077;-54
2022/03/07 06:16:36;;;;;;;14.90;9.00;;;1.20;99.90;;;;;;4994493;28;20037;-51
2022/03/07 06:19:20;;;;;;;13.50;8.88;;;1.20;99.90;;;;;;4977619;28;20038;-54
2022/03/07 06:22:05;;;;;;;12.18;8.32;;;1.20;99.90;;;;;;4979512;28;20130;-50
2022/03/07 06:24:49;;;;;;;11.50;8.48;;;1.20;99.90;;;;;;4997025;28;20088;-51
2022/03/07 06:27:32;;;;;;;12.60;8.73;;;1.30;99.90;;;;;;4996048;28;20049;-51
2022/03/07 06:30:17;;;;;;;10.80;8.90;;;1.30;99.90;;;;;;4986368;28;20037;-48
2022/03/07 06:33:01;;;;;;;24.23;15.50;;;1.30;99.90;;;;;;4991830;28;20096;-49
2022/03/07 06:35:45;;;;;;;16.85;11.85;;;1.50;99.90;;;;;;5001117;28;20033;-53
2022/03/07 06:38:29;;;;;;;11.38;8.50;;;1.40;99.90;;;;;;4998115;28;20065;-56
2022/03/07 06:41:13;;;;;;;10.13;8.55;;;1.50;99.90;;;;;;5003121;28;20045;-57
2022/03/07 06:43:59;;;;;;;11.68;8.60;;;1.40;99.90;;;;;;4995672;28;20082;-54
2022/03/07 06:46:43;;;;;;;15.13;8.32;;;1.40;99.90;;;;;;5000562;28;20096;-51
2022/03/07 06:49:27;;;;;;;16.08;8.48;;;1.40;99.90;;;;;;4994514;28;20057;-51
2022/03/07 06:52:12;;;;;;;14.77;9.02;;;1.50;99.90;;;;;;4994514;28;20124;-53
2022/03/07 06:54:56;;;;;;;13.03;8.47;;;1.40;99.90;;;;;;4996475;28;20453;-50
2022/03/07 06:57:41;;;;;;;12.23;9.13;;;1.50;99.90;;;;;;4995785;28;20521;-51
2022/03/07 07:00:25;;;;;;;15.07;8.52;;;1.50;99.90;;;;;;4995699;28;20045;-54
2022/03/07 07:03:09;;;;;;;13.35;8.70;;;1.50;99.70;;;;;;5003532;28;20033;-51
2022/03/07 07:05:54;;;;;;;13.00;8.50;;;1.50;99.70;;;;;;4994376;28;20114;-57
2022/03/07 07:08:38;;;;;;;12.45;8.25;;;1.40;99.90;;;;;;4995646;28;20089;-58
2022/03/07 07:11:22;;;;;;;15.43;8.70;;;1.40;99.90;;;;;;4994610;28;20049;-58
2022/03/07 07:14:06;;;;;;;16.40;8.55;;;1.50;99.90;;;;;;4995370;28;20513;-58
2022/03/07 07:16:50;;;;;;;11.07;8.85;;;1.60;99.90;;;;;;4995888;28;20033;-57
2022/03/07 07:19:34;;;;;;;13.13;8.43;;;1.70;99.70;;;;;;5008090;28;20449;-57
2022/03/07 07:22:18;;;;;;;11.15;7.88;;;1.90;99.40;;;;;;4975786;28;20573;-57
2022/03/07 07:25:04;;;;;;;14.73;8.57;;;1.90;99.00;;;;;;4979806;28;20060;-58
2022/03/07 07:27:48;;;;;;;15.02;10.05;;;1.90;99.30;;;;;;4995118;28;20041;-59
2022/03/07 07:30:33;;;;;;;14.80;8.07;;;2.00;99.50;;;;;;5007640;28;20096;-57
2022/03/07 07:33:17;;;;;;;11.50;8.65;;;2.20;99.40;;;;;;4995127;28;20121;-57
2022/03/07 07:36:01;;;;;;;12.48;8.93;;;2.10;99.20;;;;;;4995711;28;20076;-58
2022/03/07 07:38:45;;;;;;;11.57;8.27;;;2.30;98.90;;;;;;4994948;28;20056;-57
2022/03/07 07:41:29;;;;;;;11.70;8.20;;;2.40;98.60;;;;;;4990267;28;20042;-57
2022/03/07 07:44:13;;;;;;;12.95;8.68;;;2.60;98.10;;;;;;4989388;28;20046;-58
2022/03/07 07:46:57;;;;;;;13.23;8.65;;;2.60;97.40;;;;;;4995760;28;20114;-59
2022/03/07 07:49:41;;;;;;;9.68;7.28;;;2.60;97.50;;;;;;4976246;28;20137;-58
2022/03/07 07:52:25;;;;;;;9.13;7.90;;;2.70;97.50;;;;;;4979133;28;20398;-56
2022/03/07 07:55:10;;;;;;;9.52;7.82;;;2.70;97.40;;;;;;4995412;28;20044;-57
2022/03/07 07:57:54;;;;;;;11.27;8.80;;;2.70;97.40;;;;;;4994825;28;20080;-57
2022/03/07 08:00:38;;;;;;;9.10;7.63;;;2.70;97.50;;;;;;4994625;28;20045;-57
2022/03/07 08:03:22;;;;;;;11.25;8.10;;;2.90;97.10;;;;;;4993035;28;20118;-57
2022/03/07 08:06:06;;;;;;;13.45;8.65;;;3.00;96.90;;;;;;4995014;28;20565;-55
2022/03/07 08:08:50;;;;;;;12.13;7.90;;;2.90;97.10;;;;;;4993287;28;20165;-57
2022/03/07 08:11:34;;;;;;;14.07;7.93;;;2.90;97.30;;;;;;4989570;28;20141;-59
2022/03/07 08:14:19;;;;;;;12.05;8.25;;;3.00;97.10;;;;;;4993037;28;20049;-56
2022/03/07 08:17:05;;;;;;;10.43;7.75;;;3.10;97.00;;;;;;4993020;28;20743;-57
2022/03/07 08:19:49;;;;;;;15.57;7.85;;;3.20;96.90;;;;;;4993633;28;20115;-57
2022/03/07 08:22:33;;;;;;;10.35;7.38;;;3.30;96.80;;;;;;4993557;28;20065;-57
2022/03/07 08:25:18;;;;;;;7.85;6.40;;;3.50;96.10;;;;;;4997156;28;20045;-57
2022/03/07 08:28:03;;;;;;;8.70;7.38;;;3.50;95.00;;;;;;4974976;28;20054;-58
2022/03/07 08:30:47;;;;;;;8.02;6.63;;;3.60;94.90;;;;;;4992828;28;20118;-59
2022/03/07 08:33:32;;;;;;;9.97;7.83;;;3.50;94.90;;;;;;4990448;28;20560;-58
2022/03/07 08:36:16;;;;;;;9.30;7.40;;;3.50;95.30;;;;;;4988602;28;20061;-57
2022/03/07 08:39:00;;;;;;;8.25;6.22;;;3.50;95.70;;;;;;4993436;28;20073;-58
2022/03/07 08:41:45;;;;;;;8.85;6.70;;;3.60;94.40;;;;;;4992970;28;20037;-57
2022/03/07 08:44:29;;;;;;;8.88;6.78;;;3.60;94.70;;;;;;4986484;28;20517;-58
2022/03/07 08:47:13;;;;;;;9.70;6.70;;;3.80;94.70;;;;;;4975705;28;20038;-57
2022/03/07 08:49:58;;;;;;;8.18;6.78;;;3.70;94.00;;;;;;4975586;28;20085;-58
2022/03/07 08:52:42;;;;;;;10.30;6.38;;;3.60;94.00;;;;;;4988268;28;20065;-58
2022/03/07 08:55:26;;;;;;;9.90;6.95;;;3.70;94.00;;;;;;4992928;28;20042;-59
2022/03/07 08:58:11;;;;;;;9.93;7.07;;;3.80;93.90;;;;;;4993682;28;20029;-57
2022/03/07 09:00:55;;;;;;;9.95;7.05;;;3.80;93.80;;;;;;4974145;28;20117;-58
2022/03/07 09:03:39;;;;;;;9.38;6.97;;;3.90;93.90;;;;;;4976956;28;20133;-59
2022/03/07 09:06:23;;;;;;;10.60;6.35;;;3.90;94.10;;;;;;4993867;28;20103;-58
2022/03/07 09:09:07;;;;;;;10.32;6.63;;;4.10;93.80;;;;;;4994727;28;20041;-57
2022/03/07 09:11:51;;;;;;;9.32;6.63;;;4.20;93.40;;;;;;4994540;28;20041;-57
2022/03/07 09:14:36;;;;;;;9.13;6.40;;;4.30;92.90;;;;;;4992058;28;20497;-58
2022/03/07 09:17:20;;;;;;;11.38;7.45;;;4.40;92.70;;;;;;4993144;28;20073;-56
2022/03/07 09:20:05;;;;;;;18.88;8.55;;;4.30;93.20;;;;;;4992987;28;20038;-57
2022/03/07 09:22:49;;;;;;;17.08;7.40;;;4.40;92.90;;;;;;4992378;28;20080;-59
2022/03/07 09:25:34;;;;;;;9.85;7.20;;;4.20;93.50;;;;;;4992821;28;20096;-58
2022/03/07 09:28:18;;;;;;;10.20;7.32;;;4.30;93.10;;;;;;4992791;28;20040;-57
2022/03/07 09:31:02;;;;;;;10.98;7.60;;;4.20;93.40;;;;;;4992953;28;20128;-58
2022/03/07 09:33:46;;;;;;;9.65;7.38;;;4.30;93.70;;;;;;4992012;28;20037;-55
2022/03/07 09:36:31;;;;;;;11.55;7.88;;;4.50;93.30;;;;;;4992863;28;20056;-58
2022/03/07 09:39:15;;;;;;;12.52;7.97;;;4.40;93.60;;;;;;5005722;28;20045;-59
2022/03/07 09:42:01;;;;;;;9.93;7.87;;;4.40;93.80;;;;;;4984772;28;20065;-58
2022/03/07 09:44:44;;;;;;;16.48;8.98;;;4.50;94.10;;;;;;4993200;28;20288;-56
2022/03/07 09:47:30;;;;;;;13.93;8.90;;;4.50;94.20;;;;;;4992740;28;20078;-57
2022/03/07 09:50:14;;;;;;;13.15;8.77;;;4.60;94.30;;;;;;4992604;28;20176;-58
2022/03/07 09:52:59;;;;;;;16.73;8.95;;;4.70;94.20;;;;;;4991524;28;20057;-59
2022/03/07 09:55:45;;;;;;;12.65;7.68;;;4.70;93.90;;;;;;5003605;28;20509;-54
2022/03/07 09:58:29;;;;;;;11.43;8.23;;;4.60;94.00;;;;;;4992923;28;20080;-58
2022/03/07 10:01:19;;;;;;;15.63;9.70;;;4.40;94.60;;;;;;4991730;28;20521;-56
2022/03/07 10:04:09;;;;;;;11.23;8.20;;;4.70;94.70;;;;;;4992217;28;20044;-56
2022/03/07 10:06:54;;;;;;;11.27;8.63;;;4.90;94.30;;;;;;4989690;28;20061;-56
2022/03/07 10:09:38;;;;;;;14.55;8.88;;;4.90;94.20;;;;;;4991477;28;20037;-59
2022/03/07 10:12:29;;;;;;;21.50;9.10;;;5.00;94.10;;;;;;4985525;28;20497;-58
2022/03/07 10:15:19;;;;;;;14.30;9.70;;;5.10;94.10;;;;;;4982671;28;20107;-59
2022/03/07 10:18:03;;;;;;;14.68;9.18;;;4.90;94.30;;;;;;4992724;28;20037;-57
2022/03/07 10:20:56;;;;;;;13.07;8.68;;;4.80;94.10;;;;;;4992815;28;20104;-55
2022/03/07 10:23:50;;;;;;;12.88;8.80;;;4.30;95.30;;;;;;4990512;28;20536;-58
2022/03/07 10:26:35;;;;;;;13.63;8.57;;;4.30;95.30;;;;;;4990720;28;20057;-53
2022/03/07 10:29:19;;;;;;;10.93;8.65;;;4.50;95.10;;;;;;4991497;28;20088;-58
2022/03/07 10:32:03;;;;;;;9.45;7.88;;;4.80;94.60;;;;;;4986443;28;20064;-55
2022/03/07 10:34:48;;;;;;;11.07;7.82;;;5.00;94.10;;;;;;4992271;28;20041;-59
2022/03/07 10:37:37;;;;;;;;;;;5.20;93.40;;;;;;4983654;28;20034;-60
2022/03/07 10:40:22;;;;;;;10.88;7.30;;;5.40;93.00;;;;;;4984391;28;19921;-60
2022/03/07 10:43:06;;;;;;;;;;;5.60;92.60;;;;;;4989624;28;20102;-54
2022/03/07 10:46:00;;;;;;;10.82;7.70;;;5.60;92.40;;;;;;4995266;28;19963;-61
2022/03/07 10:48:44;;;;;;;10.15;6.95;;;5.80;92.50;;;;;;5007850;28;20092;-57
2022/03/07 10:51:29;;;;;;;11.23;7.28;;;5.80;91.30;;;;;;4995010;28;20089;-57
2022/03/07 10:54:13;;;;;;;11.23;7.68;;;5.70;91.50;;;;;;4995558;28;20038;-57
2022/03/07 10:56:57;;;;;;;10.55;7.82;;;5.60;91.80;;;;;;4986417;28;20117;-55
2022/03/07 10:59:41;;;;;;;14.77;8.80;;;5.60;92.20;;;;;;4994500;28;20034;-56
2022/03/07 11:02:25;;;;;;;10.17;8.43;;;5.60;92.50;;;;;;5007166;28;20048;-60
2022/03/07 11:05:11;;;;;;;10.45;7.78;;;5.60;91.80;;;;;;4995141;28;20100;-61
2022/03/07 11:07:55;;;;;;;10.38;8.13;;;5.50;92.10;;;;;;5007899;28;20045;-55
2022/03/07 11:10:45;;;;;;;23.83;9.07;;;5.60;92.30;;;;;;4995703;28;20033;-56
2022/03/07 11:13:30;;;;;;;9.85;7.97;;;5.70;92.40;;;;;;4995317;28;20033;-56
2022/03/07 11:16:15;;;;;;;11.05;8.15;;;6.10;91.70;;;;;;4984710;28;20037;-56
2022/03/07 11:19:01;;;;;;;10.73;9.02;;;6.00;91.10;;;;;;4995113;28;20037;-54
2022/03/07 11:21:49;;;;;;;12.10;8.05;;;5.80;91.50;;;;;;4994815;28;20137;-55
2022/03/07 11:24:36;;;;;;;8.65;7.57;;;5.80;91.60;;;;;;5012252;28;20121;-55
2022/03/07 11:27:20;;;;;;;8.80;7.63;;;5.80;91.50;;;;;;4998960;28;20042;-58
2022/03/07 11:30:20;;;;;;;9.45;7.80;;;5.80;91.60;;;;;;4993655;28;20457;-54
2022/03/07 11:33:27;;;;;;;13.23;8.35;;;5.60;92.10;;;;;;4996786;28;20065;-48
2022/03/07 11:36:17;;;;;;;10.48;7.15;;;5.80;91.60;;;;;;4996170;28;20052;-53
2022/03/07 11:39:03;;;;;;;9.57;7.18;;;6.10;91.30;;;;;;4987708;28;20537;-53
2022/03/07 11:41:47;;;;;;;9.13;7.30;;;6.10;91.60;;;;;;4994916;28;20514;-52
2022/03/07 11:44:31;;;;;;;10.93;8.48;;;6.50;90.70;;;;;;4995093;28;20126;-51
2022/03/07 11:47:20;;;;;;;9.57;7.40;;;6.40;90.70;;;;;;4994443;28;20077;-53
2022/03/07 11:50:05;;;;;;;8.73;7.53;;;6.30;90.70;;;;;;4994848;28;20386;-48
2022/03/07 11:53:00;;;;;;;9.57;8.15;;;6.10;91.00;;;;;;4998582;28;20061;-49
2022/03/07 11:55:51;;;;;;;9.82;7.50;;;6.30;90.90;;;;;;5014255;28;20052;-53
2022/03/07 11:58:36;;;;;;;9.05;7.75;;;6.60;90.20;;;;;;4975392;28;20046;-52
2022/03/07 12:01:23;;;;;;;12.15;7.75;;;6.80;89.70;;;;;;4975518;28;20033;-48
2022/03/07 12:04:15;;;;;;;9.95;7.10;;;6.70;89.80;;;;;;4979595;28;20037;-52
2022/03/07 12:06:59;;;;;;;9.57;7.35;;;6.80;88.60;;;;;;4994775;28;20049;-53
2022/03/07 12:09:43;;;;;;;12.80;7.75;;;6.60;88.50;;;;;;4994707;28;20120;-54
2022/03/07 12:12:27;;;;;;;13.38;6.95;;;6.70;87.80;;;;;;5007366;28;20076;-49
2022/03/07 12:15:13;;;;;;;10.10;7.88;;;6.90;87.90;;;;;;4994062;28;20085;-52
2022/03/07 12:17:58;;;;;;;10.93;7.68;;;6.70;88.80;;;;;;4994975;28;20121;-51
2022/03/07 12:20:54;;;;;;;11.95;7.93;;;6.50;89.70;;;;;;5007389;28;20576;-54
2022/03/07 12:23:38;;;;;;;10.52;7.40;;;6.40;90.40;;;;;;4994902;28;20138;-49
2022/03/07 12:26:22;;;;;;;10.30;7.30;;;6.50;90.20;;;;;;4975190;28;20406;-54
2022/03/07 12:29:06;;;;;;;12.57;8.55;;;6.60;90.10;;;;;;4977093;28;20038;-51
2022/03/07 12:31:58;;;;;;;10.10;7.70;;;6.70;89.10;;;;;;5007176;28;20065;-48
2022/03/07 12:34:45;;;;;;;8.77;6.75;;;6.70;88.00;;;;;;4994535;28;20076;-49
2022/03/07 12:37:29;;;;;;;11.20;7.57;;;6.50;87.80;;;;;;4994263;28;20029;-52
2022/03/07 12:40:13;;;;;;;8.15;7.10;;;6.40;87.90;;;;;;4988223;28;20073;-49
2022/03/07 12:42:58;;;;;;;12.82;7.10;;;6.50;87.90;;;;;;4990238;28;20110;-47
2022/03/07 12:45:46;;;;;;;10.85;8.55;;;6.60;88.00;;;;;;4992837;28;20160;-49
2022/03/07 12:48:43;;;;;;;9.60;8.60;;;7.00;86.90;;;;;;4994441;28;20104;-47
2022/03/07 12:51:27;;;;;;;12.57;7.60;;;7.40;87.40;;;;;;4993864;28;20041;-52
2022/03/07 12:54:12;;;;;;;10.32;7.40;;;7.80;85.10;;;;;;4993629;28;20045;-51
2022/03/07 12:56:56;;;;;;;11.63;6.90;;;7.80;83.40;;;;;;4993494;28;20434;-50
2022/03/07 12:59:40;;;;;;;9.20;7.47;;;7.40;83.90;;;;;;4993840;28;20057;-52
2022/03/07 13:02:35;;;;;;;10.68;7.05;;;7.20;84.50;;;;;;4992718;28;20041;-52
2022/03/07 13:05:24;;;;;;;10.18;7.25;;;7.30;84.30;;;;;;4974685;28;20042;-48
2022/03/07 13:08:08;;;;;;;9.75;7.35;;;7.60;83.30;;;;;;4986198;28;20456;-49
2022/03/07 13:10:52;;;;;;;15.23;7.38;;;8.00;83.30;;;;;;4993831;28;20436;-51
2022/03/07 13:14:29;;;;;;;8.85;6.80;;;8.40;81.80;;;;;;4993430;28;20041;-51
2022/03/07 13:17:19;;;;;;;10.82;7.20;;;8.30;78.90;;;;;;4993587;28;20593;-47
2022/03/07 13:20:04;;;;;;;8.80;7.07;;;8.00;79.20;;;;;;4993760;28;20045;-51
2022/03/07 13:22:48;;;;;;;;;;;7.90;80.10;;;;;;4993361;28;20083;-54
2022/03/07 13:25:37;;;;;;;11.27;6.95;;;8.00;79.60;;;;;;4993327;28;20473;-54
2022/03/07 13:28:29;;;;;;;11.82;7.65;;;8.00;79.30;;;;;;4993119;28;20398;-48
2022/03/07 13:31:14;;;;;;;8.95;7.93;;;8.40;78.10;;;;;;4993193;28;20037;-51
2022/03/07 13:33:59;;;;;;;6.90;5.72;;;8.30;79.10;;;;;;4992529;28;20120;-50
2022/03/07 13:36:49;;;;;;;8.32;6.10;;;8.00;77.90;;;;;;4992047;28;20045;-51
2022/03/07 13:39:35;;;;;;;8.00;6.13;;;7.90;78.20;;;;;;4991577;28;20100;-54
2022/03/07 13:42:19;;;;;;;7.88;6.55;;;8.00;79.30;;;;;;4992671;28;20064;-53
2022/03/07 13:45:06;;;;;;;11.50;7.38;;;8.20;79.00;;;;;;4992918;28;20386;-58
2022/03/07 13:48:03;;;;;;;12.27;7.32;;;8.20;78.50;;;;;;4993316;28;20065;-51
2022/03/07 13:50:51;;;;;;;9.23;7.15;;;8.40;78.20;;;;;;4992903;28;20044;-48
2022/03/07 13:53:36;;;;;;;9.50;7.10;;;8.50;78.50;;;;;;4992290;28;20080;-51
2022/03/07 13:56:25;;;;;;;8.85;6.78;;;8.90;77.40;;;;;;4983464;28;20041;-48
2022/03/07 13:59:11;;;;;;;7.22;5.40;;;9.20;76.30;;;;;;4992834;28;20410;-50
2022/03/07 14:01:56;;;;;;;7.00;6.10;;;9.20;75.00;;;;;;4992486;28;20580;-49
2022/03/07 14:04:51;;;;;;;5.88;5.10;;;9.00;75.00;;;;;;4993122;28;20049;-54
2022/03/07 14:07:36;;;;;;;9.10;6.18;;;9.40;74.60;;;;;;4993060;28;20524;-49
2022/03/07 14:10:21;;;;;;;;;;;9.10;74.10;;;;;;4992577;28;20061;-53
2022/03/07 14:13:06;;;;;;;9.70;5.28;;;8.30;73.40;;;;;;5004633;28;20094;-50
2022/03/07 14:15:51;;;;;;;6.55;5.68;;;8.10;74.40;;;;;;4992837;28;20084;-52
2022/03/07 14:18:36;;;;;;;11.80;5.80;;;7.70;75.40;;;;;;4993051;28;20077;-49
2022/03/07 14:21:20;;;;;;;7.03;5.35;;;8.10;75.50;;;;;;4995836;28;20617;-52
2022/03/07 14:24:05;;;;;;;7.38;5.47;;;8.70;74.20;;;;;;4996351;28;20085;-53
2022/03/07 14:26:49;;;;;;;8.88;6.40;;;9.30;73.20;;;;;;4996058;28;20073;-55